sensor_id;sensor_type;location;lat;lon;timestamp;temperature;humidity
9323;DHT22;4700;48.822;9.270;2023-03-03T04:04:20;1.70;1.00
9323;DHT22;4700;48.822;9.270;2023-03-03T04:27:09;2.00;1.00
9323;DHT22;4700;48.822;9.270;2023-03-03T04:45:06;2.40;1.00
9323;DHT22;4700;48.822;9.270;2023-03-03T04:52:59;2.30;1.00
9323;DHT22;4700;48.822;9.270;2023-03-03T04:55:45;2.50;1.00
9323;DHT22;4700;48.822;9.270;2023-03-03T05:03:34;2.40;1.00
9323;DHT22;4700;48.822;9.270;2023-03-03T05:06:19;2.30;1.00
9323;DHT22;4700;48.822;9.270;2023-03-03T05:09:05;2.50;1.00
9323;DHT22;4700;48.822;9.270;2023-03-03T05:11:53;2.40;1.00
9323;DHT22;4700;48.822;9.270;2023-03-03T05:14:40;2.30;1.00
9323;DHT22;4700;48.822;9.270;2023-03-03T05:19:58;2.50;1.00
9323;DHT22;4700;48.822;9.270;2023-03-03T05:25:19;2.40;1.00
9323;DHT22;4700;48.822;9.270;2023-03-03T05:28:05;2.70;1.00
9323;DHT22;4700;48.822;9.270;2023-03-03T05:30:53;2.60;1.00
9323;DHT22;4700;48.822;9.270;2023-03-03T05:36:10;2.60;1.00
9323;DHT22;4700;48.822;9.270;2023-03-03T05:38:57;2.60;1.00
9323;DHT22;4700;48.822;9.270;2023-03-03T05:41:43;2.70;1.00
9323;DHT22;4700;48.822;9.270;2023-03-03T05:44:30;2.60;1.00
9323;DHT22;4700;48.822;9.270;2023-03-03T05:47:16;2.50;1.00
9323;DHT22;4700;48.822;9.270;2023-03-03T05:50:03;2.70;1.00
9323;DHT22;4700;48.822;9.270;2023-03-03T05:52:51;2.60;1.00
9323;DHT22;4700;48.822;9.270;2023-03-03T05:55:37;2.50;1.00
9323;DHT22;4700;48.822;9.270;2023-03-03T05:58:24;2.60;1.00
9323;DHT22;4700;48.822;9.270;2023-03-03T06:11:37;2.70;1.00
9323;DHT22;4700;48.822;9.270;2023-03-03T06:14:24;2.70;1.00
9323;DHT22;4700;48.822;9.270;2023-03-03T06:17:10;2.70;1.00
9323;DHT22;4700;48.822;9.270;2023-03-03T06:19:58;2.70;1.00
9323;DHT22;4700;48.822;9.270;2023-03-03T06:22:44;2.60;1.00
9323;DHT22;4700;48.822;9.270;2023-03-03T06:25:30;2.80;1.00
9323;DHT22;4700;48.822;9.270;2023-03-03T06:31:06;2.80;1.00
9323;DHT22;4700;48.822;9.270;2023-03-03T06:33:54;2.60;1.00
9323;DHT22;4700;48.822;9.270;2023-03-03T06:36:43;2.80;1.00
9323;DHT22;4700;48.822;9.270;2023-03-03T06:39:33;3.10;1.00
9323;DHT22;4700;48.822;9.270;2023-03-03T06:44:51;2.80;1.00
9323;DHT22;4700;48.822;9.270;2023-03-03T06:47:38;2.80;1.00
9323;DHT22;4700;48.822;9.270;2023-03-03T06:50:24;2.60;1.00
9323;DHT22;4700;48.822;9.270;2023-03-03T06:53:13;3.00;1.00
9323;DHT22;4700;48.822;9.270;2023-03-03T06:56:04;3.00;1.00
9323;DHT22;4700;48.822;9.270;2023-03-03T06:59:05;2.90;1.00
9323;DHT22;4700;48.822;9.270;2023-03-03T07:02:16;2.90;1.00
9323;DHT22;4700;48.822;9.270;2023-03-03T07:05:08;3.10;1.00
9323;DHT22;4700;48.822;9.270;2023-03-03T07:07:55;2.90;1.00
9323;DHT22;4700;48.822;9.270;2023-03-03T07:10:43;3.10;1.00
9323;DHT22;4700;48.822;9.270;2023-03-03T07:13:32;3.00;1.00
9323;DHT22;4700;48.822;9.270;2023-03-03T07:16:25;3.10;1.00
9323;DHT22;4700;48.822;9.270;2023-03-03T07:19:19;3.20;1.00
9323;DHT22;4700;48.822;9.270;2023-03-03T07:22:16;3.20;1.00
9323;DHT22;4700;48.822;9.270;2023-03-03T07:30:23;3.40;1.00
9323;DHT22;4700;48.822;9.270;2023-03-03T07:43:45;3.80;1.00
9323;DHT22;4700;48.822;9.270;2023-03-03T07:46:41;4.10;1.00
9323;DHT22;4700;48.822;9.270;2023-03-03T07:49:36;4.10;1.00
9323;DHT22;4700;48.822;9.270;2023-03-03T08:03:43;5.10;1.00
9323;DHT22;4700;48.822;9.270;2023-03-03T08:11:48;5.40;1.00
9323;DHT22;4700;48.822;9.270;2023-03-03T08:22:26;7.00;1.00
9323;DHT22;4700;48.822;9.270;2023-03-03T08:25:14;10.00;1.00
9323;DHT22;4700;48.822;9.270;2023-03-03T08:28:00;12.10;1.00
9323;DHT22;4700;48.822;9.270;2023-03-03T08:30:47;14.80;1.00
9323;DHT22;4700;48.822;9.270;2023-03-03T08:33:33;15.90;1.00
9323;DHT22;4700;48.822;9.270;2023-03-03T08:36:19;17.00;1.00
9323;DHT22;4700;48.822;9.270;2023-03-03T08:39:07;17.50;1.00
9323;DHT22;4700;48.822;9.270;2023-03-03T08:41:53;17.80;1.00
9323;DHT22;4700;48.822;9.270;2023-03-03T08:44:39;17.60;1.00
9323;DHT22;4700;48.822;9.270;2023-03-03T08:47:25;16.50;1.00
9323;DHT22;4700;48.822;9.270;2023-03-03T08:50:12;16.60;1.00
9323;DHT22;4700;48.822;9.270;2023-03-03T08:52:59;17.60;1.00
9323;DHT22;4700;48.822;9.270;2023-03-03T08:55:46;17.00;1.00
9323;DHT22;4700;48.822;9.270;2023-03-03T08:58:32;18.40;1.00
9323;DHT22;4700;48.822;9.270;2023-03-03T09:01:18;18.70;1.00
9323;DHT22;4700;48.822;9.270;2023-03-03T09:04:04;17.60;1.00
9323;DHT22;4700;48.822;9.270;2023-03-03T09:06:50;17.80;1.00
9323;DHT22;4700;48.822;9.270;2023-03-03T09:09:39;18.60;1.00
9323;DHT22;4700;48.822;9.270;2023-03-03T09:12:29;16.50;1.00
9323;DHT22;4700;48.822;9.270;2023-03-03T09:15:23;13.00;1.00
9323;DHT22;4700;48.822;9.270;2023-03-03T09:18:14;12.90;1.00
9323;DHT22;4700;48.822;9.270;2023-03-03T09:23:33;11.50;1.00
9323;DHT22;4700;48.822;9.270;2023-03-03T09:26:26;10.80;1.00
9323;DHT22;4700;48.822;9.270;2023-03-03T09:29:24;10.90;1.00
9323;DHT22;4700;48.822;9.270;2023-03-03T09:32:23;11.30;1.00
9323;DHT22;4700;48.822;9.270;2023-03-03T09:35:34;11.30;1.00
9323;DHT22;4700;48.822;9.270;2023-03-03T09:38:26;11.60;1.00
9323;DHT22;4700;48.822;9.270;2023-03-03T09:49:00;10.10;1.00
9323;DHT22;4700;48.822;9.270;2023-03-03T09:51:59;10.10;1.00
9323;DHT22;4700;48.822;9.270;2023-03-03T10:07:40;10.20;1.00
9323;DHT22;4700;48.822;9.270;2023-03-03T10:23:40;10.00;1.00
9323;DHT22;4700;48.822;9.270;2023-03-03T10:26:43;10.10;1.00
9323;DHT22;4700;48.822;9.270;2023-03-03T10:29:40;10.20;1.00
9323;DHT22;4700;48.822;9.270;2023-03-03T10:32:34;10.20;1.00
9323;DHT22;4700;48.822;9.270;2023-03-03T10:35:36;10.10;1.00
9323;DHT22;4700;48.822;9.270;2023-03-03T10:38:33;9.70;1.00
9323;DHT22;4700;48.822;9.270;2023-03-03T10:46:41;10.40;1.00
9323;DHT22;4700;48.822;9.270;2023-03-03T10:49:41;10.40;1.00
9323;DHT22;4700;48.822;9.270;2023-03-03T10:52:35;10.60;1.00
9323;DHT22;4700;48.822;9.270;2023-03-03T10:55:40;10.40;1.00
9323;DHT22;4700;48.822;9.270;2023-03-03T10:58:49;10.00;1.00
9323;DHT22;4700;48.822;9.270;2023-03-03T11:01:52;10.10;1.00
9323;DHT22;4700;48.822;9.270;2023-03-03T11:04:58;10.00;1.00
9323;DHT22;4700;48.822;9.270;2023-03-03T11:07:51;10.10;1.00
9323;DHT22;4700;48.822;9.270;2023-03-03T11:10:50;10.20;1.00
9323;DHT22;4700;48.822;9.270;2023-03-03T11:19:05;10.10;1.00
9323;DHT22;4700;48.822;9.270;2023-03-03T11:22:03;10.20;1.00
9323;DHT22;4700;48.822;9.270;2023-03-03T11:25:00;10.30;1.00
9323;DHT22;4700;48.822;9.270;2023-03-03T11:28:11;10.20;1.00
9323;DHT22;4700;48.822;9.270;2023-03-03T11:31:09;10.40;1.00
9323;DHT22;4700;48.822;9.270;2023-03-03T11:34:02;10.50;1.00
9323;DHT22;4700;48.822;9.270;2023-03-03T11:36:52;10.50;1.00
9323;DHT22;4700;48.822;9.270;2023-03-03T11:39:42;10.40;1.00
9323;DHT22;4700;48.822;9.270;2023-03-03T11:42:39;10.40;1.00
9323;DHT22;4700;48.822;9.270;2023-03-03T11:45:30;10.40;1.00
9323;DHT22;4700;48.822;9.270;2023-03-03T11:48:26;10.50;1.00
9323;DHT22;4700;48.822;9.270;2023-03-03T11:51:19;10.50;1.00
9323;DHT22;4700;48.822;9.270;2023-03-03T11:54:13;10.90;1.00
9323;DHT22;4700;48.822;9.270;2023-03-03T11:57:13;10.80;1.00
9323;DHT22;4700;48.822;9.270;2023-03-03T12:00:22;10.90;1.00
9323;DHT22;4700;48.822;9.270;2023-03-03T12:03:18;10.70;1.00
9323;DHT22;4700;48.822;9.270;2023-03-03T12:06:12;10.60;1.00
9323;DHT22;4700;48.822;9.270;2023-03-03T12:09:26;10.40;1.00
9323;DHT22;4700;48.822;9.270;2023-03-03T12:12:19;10.10;1.00
9323;DHT22;4700;48.822;9.270;2023-03-03T12:15:18;9.70;1.00
9323;DHT22;4700;48.822;9.270;2023-03-03T12:18:38;9.50;1.00
9323;DHT22;4700;48.822;9.270;2023-03-03T12:21:42;9.60;1.00
9323;DHT22;4700;48.822;9.270;2023-03-03T12:25:03;9.50;1.00
9323;DHT22;4700;48.822;9.270;2023-03-03T12:35:34;9.00;1.00
9323;DHT22;4700;48.822;9.270;2023-03-03T12:38:28;9.00;1.00
9323;DHT22;4700;48.822;9.270;2023-03-03T12:41:19;8.90;1.00
9323;DHT22;4700;48.822;9.270;2023-03-03T12:44:14;8.50;1.00
9323;DHT22;4700;48.822;9.270;2023-03-03T12:54:57;8.70;1.00
9323;DHT22;4700;48.822;9.270;2023-03-03T13:28:56;9.00;1.00
9323;DHT22;4700;48.822;9.270;2023-03-03T13:31:47;9.00;1.00
9323;DHT22;4700;48.822;9.270;2023-03-03T13:34:39;9.10;1.00
9323;DHT22;4700;48.822;9.270;2023-03-03T13:40:05;9.10;1.00
9323;DHT22;4700;48.822;9.270;2023-03-03T13:42:59;9.20;1.00
9323;DHT22;4700;48.822;9.270;2023-03-03T13:51:38;9.20;1.00
9323;DHT22;4700;48.822;9.270;2023-03-03T13:54:45;9.20;1.00
9323;DHT22;4700;48.822;9.270;2023-03-03T13:57:44;9.20;1.00
9323;DHT22;4700;48.822;9.270;2023-03-03T14:00:47;9.20;1.00
9323;DHT22;4700;48.822;9.270;2023-03-03T14:04:06;9.20;1.00
9323;DHT22;4700;48.822;9.270;2023-03-03T14:17:10;9.20;1.00
9323;DHT22;4700;48.822;9.270;2023-03-03T14:20:09;9.10;1.00
9323;DHT22;4700;48.822;9.270;2023-03-03T14:22:58;9.30;1.00
9323;DHT22;4700;48.822;9.270;2023-03-03T14:25:55;9.50;1.00
9323;DHT22;4700;48.822;9.270;2023-03-03T14:28:42;9.50;1.00
9323;DHT22;4700;48.822;9.270;2023-03-03T14:31:37;9.60;1.00
9323;DHT22;4700;48.822;9.270;2023-03-03T14:34:34;9.40;1.00
9323;DHT22;4700;48.822;9.270;2023-03-03T14:37:25;9.50;1.00
9323;DHT22;4700;48.822;9.270;2023-03-03T14:40:19;9.50;1.00
9323;DHT22;4700;48.822;9.270;2023-03-03T14:43:19;9.50;1.00
9323;DHT22;4700;48.822;9.270;2023-03-03T14:46:31;9.60;1.00
9323;DHT22;4700;48.822;9.270;2023-03-03T14:49:29;9.60;1.00
9323;DHT22;4700;48.822;9.270;2023-03-03T14:52:23;9.60;1.00
9323;DHT22;4700;48.822;9.270;2023-03-03T14:55:31;9.60;1.00
9323;DHT22;4700;48.822;9.270;2023-03-03T14:58:30;9.60;1.00
9323;DHT22;4700;48.822;9.270;2023-03-03T15:01:22;9.60;1.00
9323;DHT22;4700;48.822;9.270;2023-03-03T15:04:25;9.80;1.00
9323;DHT22;4700;48.822;9.270;2023-03-03T15:07:27;9.70;1.00
9323;DHT22;4700;48.822;9.270;2023-03-03T15:10:28;9.70;1.00
9323;DHT22;4700;48.822;9.270;2023-03-03T15:13:33;9.70;1.00
9323;DHT22;4700;48.822;9.270;2023-03-03T15:16:21;9.60;1.00
9323;DHT22;4700;48.822;9.270;2023-03-03T15:22:21;9.70;1.00
9323;DHT22;4700;48.822;9.270;2023-03-03T15:25:17;9.70;1.00
9323;DHT22;4700;48.822;9.270;2023-03-03T15:28:16;9.70;1.00
9323;DHT22;4700;48.822;9.270;2023-03-03T15:31:13;9.60;1.00
9323;DHT22;4700;48.822;9.270;2023-03-03T15:34:04;9.60;1.00
9323;DHT22;4700;48.822;9.270;2023-03-03T15:36:59;9.60;1.00
9323;DHT22;4700;48.822;9.270;2023-03-03T15:39:51;9.60;1.00
9323;DHT22;4700;48.822;9.270;2023-03-03T15:42:48;9.50;1.00
9323;DHT22;4700;48.822;9.270;2023-03-03T15:45:39;9.50;1.00
9323;DHT22;4700;48.822;9.270;2023-03-03T15:48:48;9.40;1.00
9323;DHT22;4700;48.822;9.270;2023-03-03T15:51:54;9.40;1.00
9323;DHT22;4700;48.822;9.270;2023-03-03T15:54:53;9.40;1.00
9323;DHT22;4700;48.822;9.270;2023-03-03T15:57:53;9.30;1.00
9323;DHT22;4700;48.822;9.270;2023-03-03T16:00:52;9.10;1.00
9323;DHT22;4700;48.822;9.270;2023-03-03T16:06:17;9.00;1.00
9323;DHT22;4700;48.822;9.270;2023-03-03T16:09:13;9.00;1.00
9323;DHT22;4700;48.822;9.270;2023-03-03T17:01:13;7.90;1.00
